This is the latest recevied weather packets stored in our database for station/object GOLDWX. If no packets are shown the sender has not sent any weather packets the latest 10 day(s).
| Time | Temp. | Humidity | Pressure | Rain* | Wind** | Luminosity | Snow |
|---|---|---|---|---|---|---|---|
| 1778022854 | 20.56° C | 21% | 1010.5 hPa | 0 mm | - | - | - |
| 1778022554 | 21.11° C | 22% | 1010.4 hPa | 0 mm | - | - | - |
| 1778021650 | 21.11° C | 22% | 1010.5 hPa | 0 mm | - | - | - |
| 1778021048 | 21.11° C | 21% | 1010.6 hPa | 0 mm | - | - | - |
| 1778020747 | 21.11° C | 22% | 1010.5 hPa | 0 mm | - | - | - |
| 1778020145 | 20.56° C | 20% | 1010.6 hPa | 0 mm | - | - | - |
| 1778019844 | 20.56° C | 19% | 1010.7 hPa | 0 mm | - | - | - |
| 1778019243 | 21.11° C | 18% | 1010.8 hPa | 0 mm | - | - | - |
| 1778018942 | 21.67° C | 17% | 1010.8 hPa | 0 mm | - | - | - |
| 1778018340 | 22.78° C | 17% | 1010.7 hPa | 0 mm | - | - | - |
| 1778018039 | 22.78° C | 18% | 1010.7 hPa | 0 mm | - | - | - |
| 1778017437 | 23.33° C | 17% | 1010.8 hPa | 0 mm | - | - | - |
| 1778017137 | 23.33° C | 19% | 1010.7 hPa | 0 mm | - | - | - |
| 1778016535 | 22.22° C | 19% | 1010.9 hPa | 0 mm | - | - | - |
| 1778016234 | 21.67° C | 18% | 1011 hPa | 0 mm | - | - | - |
| 1778015632 | 23.33° C | 18% | 1010.9 hPa | 0 mm | - | - | - |
| 1778015332 | 22.78° C | 19% | 1010.9 hPa | 0 mm | - | - | - |
| 1778014730 | 22.78° C | 19% | 1011 hPa | 0 mm | - | - | - |
| 1778014430 | 22.78° C | 19% | 1011.1 hPa | 0 mm | - | - | - |
| 1778013828 | 22.22° C | 21% | 1011.1 hPa | 0 mm | - | - | - |
| 1778013527 | 21.67° C | 21% | 1011.2 hPa | 0 mm | - | - | - |
| 1778013228 | 21.11° C | 21% | 1011.2 hPa | 0 mm | - | - | - |
| 1778012925 | 21.67° C | 21% | 1011.2 hPa | 0 mm | - | - | - |
| 1778012624 | 22.22° C | 20% | 1011.2 hPa | 0 mm | - | - | - |
| 1778012023 | 21.67° C | 20% | 1011.3 hPa | 0 mm | - | - | - |
* Rain since midnight (hover to see other rain measurements)
** Current wind speed in m/s (hover to see current wind gust speed)